Time;durP1;ratioP1;P1;durP2;ratioP2;P2;SDS_P1;SDS_P2;PMS_P1;PMS_P2;Temp;Humidity;BMP_temperature;BMP_pressure;BME280_temperature;BME280_humidity;BME280_pressure;Samples;Min_cycle;Max_cycle;Signal;HPM_P1;HPM_P2
2022/04/02 00:00:55;;;;;;;7.53;6.38;;;;;;;1.71;64.05;101392.53;5110750;28;20036;-73
2022/04/02 00:03:21;;;;;;;8.10;6.78;;;;;;;1.81;63.79;101408.94;5098433;28;20034;-72
2022/04/02 00:05:47;;;;;;;7.32;6.22;;;;;;;1.81;63.62;101401.94;5097566;28;20035;-72
2022/04/02 00:08:16;;;;;;;10.73;6.25;;;;;;;1.85;63.89;101410.63;5100948;28;20031;-72
2022/04/02 00:10:44;;;;;;;7.38;6.53;;;;;;;1.86;63.60;101403.63;5096332;28;20567;-73
2022/04/02 00:13:10;;;;;;;8.10;5.88;;;;;;;1.87;63.49;101395.72;5093984;28;20024;-73
2022/04/02 00:15:35;;;;;;;10.20;6.18;;;;;;;1.92;63.34;101408.75;5089667;28;20402;-72
2022/04/02 00:18:01;;;;;;;6.72;6.10;;;;;;;1.93;63.49;101421.84;5096961;28;20451;-73
2022/04/02 00:20:27;;;;;;;8.27;6.68;;;;;;;1.88;62.82;101407.94;5089397;28;20042;-72
2022/04/02 00:25:37;;;;;;;8.10;6.97;;;;;;;1.91;62.45;101412.25;5091287;28;20513;-72
2022/04/02 00:28:03;;;;;;;7.20;6.50;;;;;;;1.90;63.41;101415.78;5097334;28;20024;-73
2022/04/02 00:30:29;;;;;;;8.23;6.00;;;;;;;1.89;62.85;101407.06;5102396;28;20030;-72
2022/04/02 00:32:55;;;;;;;6.72;6.07;;;;;;;1.97;63.19;101410.41;5089472;28;20025;-72
2022/04/02 00:35:21;;;;;;;7.90;5.65;;;;;;;2.02;63.63;101416.41;5093418;28;20031;-72
2022/04/02 00:37:46;;;;;;;7.55;5.95;;;;;;;2.01;63.24;101412.06;5060175;28;20028;-72
2022/04/02 00:40:12;;;;;;;7.60;6.00;;;;;;;1.98;62.88;101399.00;5083688;28;20047;-72
2022/04/02 00:42:37;;;;;;;7.65;6.07;;;;;;;2.07;62.61;101410.25;5094507;28;20020;-72
2022/04/02 00:45:03;;;;;;;6.90;6.03;;;;;;;2.04;62.17;101411.16;5092663;28;20020;-72
2022/04/02 00:47:29;;;;;;;6.80;6.20;;;;;;;2.08;62.97;101409.34;5088144;28;20051;-73
2022/04/02 00:49:54;;;;;;;9.73;6.15;;;;;;;2.07;61.99;101415.47;5077765;28;20112;-72
2022/04/02 00:52:21;;;;;;;10.65;6.05;;;;;;;2.04;63.08;101406.78;5073646;28;20052;-72
2022/04/02 00:54:51;;;;;;;8.88;6.13;;;;;;;2.03;62.48;101409.44;5092227;28;20038;-72
2022/04/02 00:57:17;;;;;;;6.63;6.05;;;;;;;1.99;63.02;101416.47;5092365;28;20020;-72
2022/04/02 00:59:43;;;;;;;6.80;6.10;;;;;;;1.96;62.23;101402.56;5090025;28;20480;-73
2022/04/02 01:02:09;;;;;;;6.93;5.90;;;;;;;2.04;62.46;101412.03;5094326;28;20067;-72
2022/04/02 01:04:35;;;;;;;7.57;6.30;;;;;;;2.04;62.82;101417.25;5098447;28;20478;-72
2022/04/02 01:07:03;;;;;;;6.72;5.82;;;;;;;2.04;62.48;101409.41;5094205;28;20038;-72
2022/04/02 01:09:31;;;;;;;7.15;5.93;;;;;;;2.00;62.59;101399.88;5089310;28;20063;-72
2022/04/02 01:11:57;;;;;;;6.10;5.60;;;;;;;1.97;63.12;101396.41;5093628;28;20016;-73
2022/04/02 01:14:23;;;;;;;9.00;6.15;;;;;;;2.02;62.49;101399.81;5088819;28;20028;-72
2022/04/02 01:16:49;;;;;;;7.78;6.28;;;;;;;2.04;63.29;101404.16;5091795;28;20024;-72
2022/04/02 01:19:15;;;;;;;9.27;6.22;;;;;;;2.04;63.93;101412.03;5090069;28;20035;-72
2022/04/02 01:21:47;;;;;;;8.15;6.60;;;;;;;2.04;62.66;101411.16;5088905;28;20024;-72
2022/04/02 01:24:13;;;;;;;6.85;6.15;;;;;;;2.01;62.68;101398.97;5093195;28;20055;-72
2022/04/02 01:26:38;;;;;;;6.82;6.20;;;;;;;2.06;62.42;101414.63;5107669;28;20439;-72
2022/04/02 01:29:06;;;;;;;7.63;6.25;;;;;;;2.00;62.59;101404.22;5099278;28;20043;-72
2022/04/02 01:31:32;;;;;;;8.05;5.97;;;;;;;2.00;62.30;101409.47;5089133;28;20457;-72
2022/04/02 01:33:58;;;;;;;6.75;5.97;;;;;;;1.96;62.56;101416.53;5099949;28;20019;-72
2022/04/02 01:36:24;;;;;;;5.93;5.32;;;;;;;1.95;61.97;101412.19;5107761;28;20027;-73
2022/04/02 01:38:51;;;;;;;6.95;5.45;;;;;;;1.87;62.57;101397.47;5092861;28;20034;-72
2022/04/02 01:41:17;;;;;;;7.18;5.60;;;;;;;1.86;62.09;101401.88;5089033;28;20081;-72
2022/04/02 01:43:43;;;;;;;6.90;5.82;;;;;;;1.83;62.18;101401.06;5090424;28;20055;-72
2022/04/02 01:46:10;;;;;;;6.68;6.07;;;;;;;1.89;61.74;101401.81;5092508;28;20023;-71
2022/04/02 01:48:36;;;;;;;6.05;5.45;;;;;;;1.88;62.10;101405.31;5094056;28;20165;-72
2022/04/02 01:51:02;;;;;;;7.35;6.45;;;;;;;1.87;61.92;101408.84;5092075;28;20115;-72
2022/04/02 01:53:29;;;;;;;6.35;5.63;;;;;;;1.56;61.90;101363.97;5102865;28;20092;-72
2022/04/02 01:55:54;;;;;;;7.60;6.32;;;;;;;1.79;62.58;101411.63;5093702;28;20534;-72
2022/04/02 01:58:22;;;;;;;6.25;5.75;;;;;;;1.87;61.67;101415.84;5093787;28;20118;-72
2022/04/02 02:00:47;;;;;;;7.72;5.95;;;;;;;1.83;62.14;101420.28;5095982;28;20044;-72
2022/04/02 02:03:13;;;;;;;6.90;5.68;;;;;;;1.80;61.49;101417.72;5100971;28;20031;-73
2022/04/02 02:05:39;;;;;;;6.35;5.15;;;;;;;1.76;62.16;101419.50;5091520;28;20044;-73
2022/04/02 02:08:05;;;;;;;6.88;6.05;;;;;;;1.83;62.22;101422.06;5099503;28;20371;-72
2022/04/02 02:10:32;;;;;;;6.28;5.68;;;;;;;1.79;61.45;101423.84;5102893;28;20032;-72
2022/04/02 02:12:58;;;;;;;6.05;5.45;;;;;;;1.69;61.62;101411.78;5098921;28;20020;-72
2022/04/02 02:15:24;;;;;;;7.30;6.10;;;;;;;1.76;61.65;101424.75;5093362;28;20032;-72
2022/04/02 02:17:50;;;;;;;8.80;6.00;;;;;;;1.69;61.94;101414.41;5107845;28;20038;-72
2022/04/02 02:20:17;;;;;;;7.30;5.75;;;;;;;1.67;61.78;101424.91;5106126;28;20028;-72
2022/04/02 02:22:47;;;;;;;7.70;6.20;;;;;;;1.72;62.35;101427.47;5103531;28;20403;-72
2022/04/02 02:25:16;;;;;;;7.57;6.38;;;;;;;1.68;62.95;101431.03;5093780;28;20025;-72
2022/04/02 02:27:47;;;;;;;10.32;5.90;;;;;;;1.67;62.70;101430.16;5103415;28;20088;-72
2022/04/02 02:30:14;;;;;;;6.47;5.93;;;;;;;1.66;62.02;101430.19;5097075;28;20027;-72
2022/04/02 02:32:40;;;;;;;6.70;5.95;;;;;;;1.66;62.37;101438.91;5093618;28;20063;-72
2022/04/02 02:38:08;;;;;;;6.63;6.00;;;;;;;1.61;62.21;101438.13;5096931;28;20119;-72
2022/04/02 02:40:34;;;;;;;6.85;6.28;;;;;;;1.65;62.00;101441.56;5092627;28;20115;-72
2022/04/02 02:43:00;;;;;;;6.55;5.95;;;;;;;1.58;61.46;101443.41;5093055;28;20031;-72
2022/04/02 02:45:27;;;;;;;8.02;5.97;;;;;;;1.54;62.40;101442.59;5092841;28;20124;-72
2022/04/02 02:47:53;;;;;;;6.90;5.85;;;;;;;1.58;61.53;101446.03;5092834;28;20047;-72
2022/04/02 02:50:19;;;;;;;8.55;6.15;;;;;;;1.55;62.33;101433.00;5095664;28;20491;-72
2022/04/02 02:52:45;;;;;;;8.02;5.70;;;;;;;1.58;61.58;101440.81;5092304;28;20581;-72
2022/04/02 02:55:10;;;;;;;6.88;6.20;;;;;;;1.58;62.37;101451.28;5092612;28;20425;-72
2022/04/02 02:57:40;;;;;;;6.97;6.35;;;;;;;1.51;62.23;101433.94;5080487;28;20059;-72
2022/04/02 03:00:07;;;;;;;8.07;5.82;;;;;;;1.54;62.48;101442.59;5092812;28;20069;-72
2022/04/02 03:02:33;;;;;;;6.57;5.88;;;;;;;1.47;62.26;101434.84;5092943;28;20016;-72
2022/04/02 03:04:59;;;;;;;8.73;6.30;;;;;;;1.48;61.76;101434.00;5092556;28;20027;-73
2022/04/02 03:07:25;;;;;;;7.05;6.35;;;;;;;1.59;61.97;101453.03;5094668;28;20016;-72
2022/04/02 03:09:51;;;;;;;5.93;5.43;;;;;;;1.35;61.86;101412.34;5081801;28;20039;-72
2022/04/02 03:12:17;;;;;;;6.53;5.57;;;;;;;1.52;62.07;101447.00;5091830;28;20024;-72
2022/04/02 03:14:43;;;;;;;7.40;5.55;;;;;;;1.51;62.00;101447.03;5097014;28;20036;-72
2022/04/02 03:17:09;;;;;;;7.28;5.68;;;;;;;1.52;62.41;101449.63;5101833;28;20024;-72
2022/04/02 03:19:35;;;;;;;5.68;5.18;;;;;;;1.46;62.68;101454.09;5090822;28;20032;-72
2022/04/02 03:22:01;;;;;;;7.97;5.43;;;;;;;1.45;62.18;101455.88;5091919;28;20020;-73
2022/04/02 03:24:27;;;;;;;6.50;5.78;;;;;;;1.48;61.95;101452.34;5101871;28;20034;-72
2022/04/02 03:26:53;;;;;;;6.32;5.72;;;;;;;1.46;62.35;101448.88;5104889;28;20020;-73
2022/04/02 03:29:18;;;;;;;6.57;5.65;;;;;;;1.46;62.47;101457.59;5090956;28;20093;-72
2022/04/02 03:31:44;;;;;;;5.85;5.40;;;;;;;1.39;61.39;101455.97;5095378;28;20525;-72
2022/04/02 03:34:10;;;;;;;6.13;5.53;;;;;;;1.42;62.56;101450.66;5093566;28;20020;-72
2022/04/02 03:36:37;;;;;;;7.32;5.40;;;;;;;1.43;62.56;101454.16;5091616;28;20027;-73
2022/04/02 03:39:03;;;;;;;6.90;6.20;;;;;;;1.41;62.48;101440.19;5091426;28;20078;-72
2022/04/02 03:41:29;;;;;;;6.18;5.60;;;;;;;1.42;62.45;101450.66;5091423;28;20430;-72
2022/04/02 03:43:56;;;;;;;7.82;6.10;;;;;;;1.43;63.03;101455.00;5073958;28;20024;-72
2022/04/02 03:49:06;;;;;;;7.85;6.10;;;;;;;1.35;62.16;101455.16;5095435;28;20097;-72
2022/04/02 03:51:32;;;;;;;8.57;6.00;;;;;;;1.32;62.54;101460.44;5087661;28;20024;-71
2022/04/02 03:53:59;;;;;;;6.78;5.80;;;;;;;1.31;63.08;101466.56;5090268;28;20521;-72
2022/04/02 03:56:25;;;;;;;6.47;5.88;;;;;;;1.28;63.61;101466.59;5071786;28;20036;-72
2022/04/02 03:58:50;;;;;;;6.57;5.70;;;;;;;1.26;63.10;101473.59;5091681;28;20020;-72
2022/04/02 04:01:16;;;;;;;6.05;5.45;;;;;;;1.23;63.73;101470.16;5090890;28;20023;-72
2022/04/02 04:03:43;;;;;;;6.18;5.63;;;;;;;1.24;64.00;101474.53;5091571;28;20039;-72
2022/04/02 04:06:09;;;;;;;9.35;5.65;;;;;;;1.13;62.81;101458.97;5091268;28;20114;-72
2022/04/02 04:08:40;;;;;;;7.70;6.30;;;;;;;1.19;63.76;101476.34;5104403;28;20110;-72
2022/04/02 04:11:06;;;;;;;7.00;6.30;;;;;;;1.16;63.39;101474.63;5102495;28;20019;-72
2022/04/02 04:13:32;;;;;;;7.15;6.07;;;;;;;1.13;63.28;101478.16;5095758;28;20070;-72
2022/04/02 04:15:57;;;;;;;9.52;6.60;;;;;;;1.17;63.35;101484.22;5090625;28;20035;-72
2022/04/02 04:18:23;;;;;;;7.25;6.10;;;;;;;1.19;63.61;101485.06;5091104;28;20020;-71
2022/04/02 04:20:51;;;;;;;8.68;6.65;;;;;;;1.23;63.85;101488.50;5098798;28;20075;-72
2022/04/02 04:23:17;;;;;;;6.40;5.78;;;;;;;1.20;63.27;101486.78;5096446;28;20032;-72
2022/04/02 04:25:43;;;;;;;6.40;5.80;;;;;;;1.15;62.65;101483.41;5091628;28;20024;-72
2022/04/02 04:28:08;;;;;;;6.95;5.90;;;;;;;1.10;63.65;101459.88;5103356;28;20071;-72
2022/04/02 04:30:34;;;;;;;6.55;5.88;;;;;;;1.24;62.97;101487.63;5098831;28;20056;-72
2022/04/02 04:33:04;;;;;;;6.32;5.70;;;;;;;1.18;62.46;101485.97;5094890;28;20474;-72
2022/04/02 04:35:29;;;;;;;;;;;;;;;1.25;63.01;101487.59;5090414;28;20120;-72
2022/04/02 04:37:55;;;;;;;6.40;5.90;;;;;;;1.17;62.39;101478.13;5113963;27;20035;-72
2022/04/02 04:40:20;;;;;;;6.18;5.68;;;;;;;1.22;62.89;101486.78;5095935;28;20039;-71
2022/04/02 04:42:46;;;;;;;7.25;5.75;;;;;;;1.22;63.04;101492.03;5104694;28;20080;-72
2022/04/02 04:45:12;;;;;;;7.28;5.90;;;;;;;1.27;63.39;101500.69;5091995;28;20042;-72
2022/04/02 04:47:44;;;;;;;6.85;6.15;;;;;;;1.23;63.21;101506.84;5056301;28;20028;-72
2022/04/02 04:50:09;;;;;;;7.78;5.95;;;;;;;1.27;63.57;101511.19;5090065;28;20031;-72
2022/04/02 04:52:35;;;;;;;9.25;6.50;;;;;;;1.27;63.47;101506.78;5088589;28;20047;-71
2022/04/02 04:55:01;;;;;;;6.57;5.97;;;;;;;1.24;63.34;101521.69;5087341;28;20032;-72
2022/04/02 04:57:27;;;;;;;6.28;5.75;;;;;;;1.19;63.71;101521.75;5090745;28;20424;-72
2022/04/02 04:59:52;;;;;;;6.22;5.63;;;;;;;1.12;63.74;101510.50;5089097;28;20119;-72
2022/04/02 05:02:20;;;;;;;6.38;5.80;;;;;;;1.18;63.47;101530.50;5094131;28;20103;-72
2022/04/02 05:04:46;;;;;;;6.50;5.90;;;;;;;1.20;63.58;101528.72;5090482;28;20039;-72
2022/04/02 05:07:12;;;;;;;6.55;6.05;;;;;;;1.21;62.75;101526.97;5090285;28;20028;-72
2022/04/02 05:09:39;;;;;;;6.65;5.93;;;;;;;1.21;63.59;101532.22;5072845;28;20031;-72
2022/04/02 05:12:06;;;;;;;7.43;5.43;;;;;;;1.22;62.63;101534.81;5090022;28;20128;-72
2022/04/02 05:14:34;;;;;;;6.70;5.60;;;;;;;1.28;62.55;101539.09;5088768;28;20028;-72
2022/04/02 05:16:59;;;;;;;5.95;5.35;;;;;;;1.29;62.58;101544.31;5090938;28;20530;-72
2022/04/02 05:19:25;;;;;;;6.70;5.82;;;;;;;1.28;63.15;101539.09;5090703;28;20123;-72
2022/04/02 05:21:51;;;;;;;7.03;5.95;;;;;;;1.04;61.49;101514.09;5072545;28;20479;-72
2022/04/02 05:24:17;;;;;;;6.18;5.60;;;;;;;1.26;62.17;101549.59;5091885;28;20065;-72
2022/04/02 05:26:47;;;;;;;6.57;5.87;;;;;;;1.21;62.45;101543.56;5094755;28;20110;-72
2022/04/02 05:29:15;;;;;;;7.25;5.25;;;;;;;1.32;61.82;101557.41;5093819;28;20031;-72
2022/04/02 05:31:41;;;;;;;6.03;5.53;;;;;;;1.34;61.53;101563.47;5105823;28;20027;-72
2022/04/02 05:34:07;;;;;;;5.88;5.40;;;;;;;1.33;61.80;101569.59;5088037;28;20631;-72
2022/04/02 05:36:33;;;;;;;6.07;5.47;;;;;;;1.38;61.46;101573.91;5094467;28;20031;-72
2022/04/02 05:39:01;;;;;;;7.28;5.97;;;;;;;1.37;61.67;101570.41;5093215;28;20028;-71
2022/04/02 05:41:28;;;;;;;8.30;5.75;;;;;;;1.40;61.41;101573.00;5093361;28;20435;-72
2022/04/02 05:43:54;;;;;;;7.15;5.63;;;;;;;1.44;61.62;101574.72;5076789;28;20044;-72
2022/04/02 05:46:21;;;;;;;12.02;6.18;;;;;;;1.46;61.75;101580.78;5101779;28;20039;-71
2022/04/02 05:48:47;;;;;;;7.15;5.78;;;;;;;1.41;62.18;101577.34;5095002;28;20110;-72
2022/04/02 05:51:15;;;;;;;6.45;5.65;;;;;;;1.39;62.31;101591.38;5092713;28;20169;-72
2022/04/02 05:53:41;;;;;;;8.48;5.38;;;;;;;1.39;62.05;101588.75;5093585;28;20040;-72
2022/04/02 05:56:07;;;;;;;6.28;5.68;;;;;;;1.35;62.52;101578.31;5093334;28;20047;-72
2022/04/02 05:58:33;;;;;;;7.95;6.22;;;;;;;1.38;62.55;101582.63;5094350;28;20031;-71
2022/04/02 06:00:58;;;;;;;6.13;5.63;;;;;;;1.46;63.02;101595.63;5113975;28;20024;-72
2022/04/02 06:03:24;;;;;;;9.93;5.53;;;;;;;1.51;61.85;101599.06;5102294;28;20031;-72
2022/04/02 06:05:51;;;;;;;7.55;6.55;;;;;;;1.49;62.04;101601.69;5099316;28;20454;-72
2022/04/02 06:08:17;;;;;;;6.32;5.70;;;;;;;1.52;62.33;101595.56;5114666;28;20047;-72
2022/04/02 06:10:44;;;;;;;8.95;5.85;;;;;;;1.52;62.64;101601.66;5114661;28;20098;-72
2022/04/02 06:13:10;;;;;;;7.07;5.80;;;;;;;1.45;62.26;101597.41;5107728;28;20100;-72
2022/04/02 06:15:37;;;;;;;6.97;6.28;;;;;;;1.50;62.43;101600.84;5094327;28;20141;-72
2022/04/02 06:18:03;;;;;;;7.80;6.10;;;;;;;1.51;62.29;101615.66;5092876;28;20027;-72
2022/04/02 06:20:29;;;;;;;6.97;5.43;;;;;;;1.59;62.64;101610.31;5098992;28;20024;-72
2022/04/02 06:22:55;;;;;;;6.28;5.57;;;;;;;1.50;61.98;101581.59;5103174;28;20052;-72
2022/04/02 06:25:20;;;;;;;6.43;5.60;;;;;;;1.77;61.58;101611.81;5094129;28;20062;-72
2022/04/02 06:27:48;;;;;;;7.28;6.03;;;;;;;1.80;61.60;101623.13;5093873;28;20073;-71
2022/04/02 06:30:17;;;;;;;7.40;6.18;;;;;;;1.83;62.22;101621.38;5092573;28;20016;-72
2022/04/02 06:32:44;;;;;;;6.85;6.15;;;;;;;1.81;61.71;101631.84;5100533;28;20035;-72
2022/04/02 06:35:11;;;;;;;6.60;6.00;;;;;;;1.81;61.85;101630.09;5100546;28;20023;-71
2022/04/02 06:37:38;;;;;;;8.20;6.20;;;;;;;1.80;62.19;101630.13;5107102;28;20028;-72
2022/04/02 06:40:06;;;;;;;6.15;5.60;;;;;;;1.69;62.34;101632.91;5113093;28;20051;-72
2022/04/02 06:42:32;;;;;;;6.32;5.75;;;;;;;1.68;62.69;101635.56;5105932;28;20504;-72
2022/04/02 06:44:58;;;;;;;7.45;5.93;;;;;;;1.71;62.86;101644.25;5092639;28;20039;-72
2022/04/02 06:47:31;;;;;;;6.28;5.65;;;;;;;1.75;62.59;101631.94;5092206;28;20020;-71
2022/04/02 06:49:57;;;;;;;7.40;6.22;;;;;;;1.85;61.93;101645.78;5113986;28;20036;-71
2022/04/02 06:52:24;;;;;;;7.43;6.20;;;;;;;1.96;61.71;101654.38;5104623;28;20032;-71
2022/04/02 06:54:50;;;;;;;6.72;6.00;;;;;;;1.97;62.03;101656.09;5095944;28;20072;-72
2022/04/02 06:57:20;;;;;;;8.18;5.93;;;;;;;1.99;62.31;101657.81;5096007;28;20023;-72
2022/04/02 06:59:45;;;;;;;8.35;6.32;;;;;;;2.08;61.83;101664.69;5113658;28;20027;-72
2022/04/02 07:02:12;;;;;;;6.53;6.03;;;;;;;2.17;61.56;101663.69;5112251;28;20110;-71
2022/04/02 07:04:38;;;;;;;7.18;5.90;;;;;;;2.21;61.54;101666.25;5108515;28;20024;-72
2022/04/02 07:07:03;;;;;;;10.13;6.13;;;;;;;2.23;61.05;101674.94;5074426;28;20092;-72
2022/04/02 07:09:29;;;;;;;10.50;6.18;;;;;;;2.31;60.91;101674.84;5075013;28;20036;-72
2022/04/02 07:11:55;;;;;;;7.47;5.90;;;;;;;2.37;60.40;101677.38;5092680;28;20067;-72
2022/04/02 07:14:22;;;;;;;8.13;6.22;;;;;;;2.38;61.32;101686.09;5106769;28;20425;-72
2022/04/02 07:16:47;;;;;;;12.52;5.90;;;;;;;2.47;60.80;101685.94;5095062;28;20035;-72
2022/04/02 07:19:18;;;;;;;5.97;5.38;;;;;;;2.45;60.85;101679.88;5091710;28;20165;-71
2022/04/02 07:21:43;;;;;;;9.43;5.72;;;;;;;2.56;60.48;101692.81;5109793;28;20032;-72
2022/04/02 07:24:12;;;;;;;9.43;6.07;;;;;;;2.59;60.91;101692.75;5113284;28;20054;-72
2022/04/02 07:26:38;;;;;;;8.13;6.20;;;;;;;2.61;60.55;101694.47;5094493;28;20122;-72
2022/04/02 07:29:07;;;;;;;6.90;6.15;;;;;;;2.63;61.27;101695.31;5111666;28;20523;-72
2022/04/02 07:31:35;;;;;;;7.22;6.28;;;;;;;2.65;60.14;101697.94;5096990;28;20034;-72
2022/04/02 07:34:00;;;;;;;6.32;5.72;;;;;;;2.71;61.08;101700.47;5092690;28;20024;-72
2022/04/02 07:37:08;;;;;;;6.70;5.93;;;;;;;2.75;60.61;101711.78;5090297;28;20092;-71
2022/04/02 07:39:53;;;;;;;6.00;5.50;;;;;;;2.77;60.49;101710.00;5072539;28;20055;-71
2022/04/02 07:42:23;;;;;;;8.50;5.80;;;;;;;2.83;60.09;101713.38;5092611;28;20016;-71
2022/04/02 07:45:05;;;;;;;9.73;6.35;;;;;;;2.92;59.13;101713.22;5092642;28;20363;-71
2022/04/02 07:47:34;;;;;;;6.97;6.13;;;;;;;3.12;59.85;101714.66;5091196;28;20024;-71
2022/04/02 07:50:13;;;;;;;7.75;5.95;;;;;;;3.30;58.77;101722.19;5091425;28;20107;-71
2022/04/02 07:52:53;;;;;;;6.93;6.28;;;;;;;3.50;59.20;101718.28;5090805;28;20527;-71
2022/04/02 07:55:20;;;;;;;8.00;5.68;;;;;;;3.52;57.81;101706.84;5091980;28;20032;-71
2022/04/02 07:57:51;;;;;;;8.82;6.07;;;;;;;3.81;57.78;101722.03;5091649;28;20059;-71
2022/04/02 08:00:20;;;;;;;10.88;6.38;;;;;;;4.04;58.36;101723.31;5092495;28;20060;-71
2022/04/02 08:02:47;;;;;;;6.28;5.65;;;;;;;4.16;56.15;101720.41;5090396;28;20034;-71
2022/04/02 08:05:15;;;;;;;7.57;6.20;;;;;;;4.27;57.65;101726.31;5092003;28;20035;-71
2022/04/02 08:07:49;;;;;;;7.00;6.20;;;;;;;4.22;56.10;101708.88;5099067;28;20078;-71
2022/04/02 08:10:17;;;;;;;10.07;6.10;;;;;;;4.29;55.57;101724.50;5090152;28;20040;-71
2022/04/02 08:12:46;;;;;;;8.85;6.00;;;;;;;4.30;56.25;101731.50;5092179;28;20063;-71
2022/04/02 08:15:17;;;;;;;6.63;5.97;;;;;;;4.24;55.65;101730.78;5090838;28;20043;-71
2022/04/02 08:17:45;;;;;;;7.85;6.25;;;;;;;4.19;55.75;101719.47;5093122;28;20028;-71
2022/04/02 08:20:11;;;;;;;6.90;5.97;;;;;;;4.24;55.45;101728.16;5109097;28;20027;-71
2022/04/02 08:22:37;;;;;;;8.25;6.15;;;;;;;4.27;55.50;101731.56;5090984;28;20036;-71
2022/04/02 08:25:04;;;;;;;6.93;5.28;;;;;;;4.35;55.74;101730.50;5091777;28;20032;-71
2022/04/02 08:28:13;;;;;;;9.63;6.47;;;;;;;4.51;55.94;101735.41;5091622;28;20024;-71
2022/04/02 08:30:52;;;;;;;10.68;5.88;;;;;;;4.43;55.30;101728.56;5091053;28;20024;-71
2022/04/02 08:33:30;;;;;;;10.05;5.78;;;;;;;4.49;55.86;101734.56;5110334;28;20023;-71
2022/04/02 08:36:42;;;;;;;8.32;5.80;;;;;;;4.51;55.41;101745.94;5111410;28;20027;-71
2022/04/02 08:39:26;;;;;;;8.32;5.75;;;;;;;4.55;55.16;101744.94;5110831;28;20023;-71
2022/04/02 08:42:16;;;;;;;11.80;6.18;;;;;;;4.62;55.52;101745.69;5090337;28;20129;-72
2022/04/02 08:45:01;;;;;;;;;;;;;;;4.74;56.13;101757.69;5112336;28;20031;-72
2022/04/02 08:47:30;;;;;;;8.07;5.70;;;;;;;4.65;56.01;101756.16;5101720;28;19920;-72
2022/04/02 08:50:01;;;;;;;7.78;6.40;;;;;;;4.65;57.08;101761.44;5096059;28;20027;-71
2022/04/02 08:52:51;;;;;;;7.85;5.97;;;;;;;4.62;55.18;101761.50;5090114;28;20036;-72
2022/04/02 08:55:21;;;;;;;8.82;5.82;;;;;;;4.54;55.41;101771.34;5091156;28;20123;-71
2022/04/02 08:57:53;;;;;;;7.25;6.03;;;;;;;4.38;55.99;101775.22;5095316;28;20498;-71
2022/04/02 09:00:24;;;;;;;8.80;6.45;;;;;;;4.18;56.55;101776.53;5089358;28;20020;-72
2022/04/02 09:03:19;;;;;;;8.10;6.00;;;;;;;4.15;57.11;101780.97;5099092;28;20089;-71
2022/04/02 09:06:20;;;;;;;9.38;6.70;;;;;;;4.01;57.18;101773.38;5102971;28;20530;-71
2022/04/02 09:09:06;;;;;;;7.93;7.00;;;;;;;4.08;57.65;101783.75;5089915;28;20055;-71
2022/04/02 09:11:56;;;;;;;7.95;7.10;;;;;;;4.08;57.70;101790.78;5088200;28;20029;-71
2022/04/02 09:14:24;;;;;;;;;;;;;;;4.21;57.75;101794.03;5091354;28;20115;-72
2022/04/02 09:16:55;;;;;;;9.85;6.70;;;;;;;4.21;57.50;101794.91;5090360;28;19912;-72
2022/04/02 09:19:52;;;;;;;9.52;6.63;;;;;;;4.41;57.41;101797.09;5090477;28;20024;-72
2022/04/02 09:22:20;;;;;;;8.63;6.65;;;;;;;4.46;57.75;101802.25;5079161;28;20128;-71
2022/04/02 09:25:23;;;;;;;10.52;6.90;;;;;;;4.63;57.27;101800.09;5092772;28;20028;-71
2022/04/02 09:28:30;;;;;;;8.43;7.47;;;;;;;4.62;57.54;101800.13;5089017;28;20392;-71
2022/04/02 09:31:14;;;;;;;8.30;7.50;;;;;;;4.55;56.65;101805.53;5080136;28;20051;-72
2022/04/02 09:34:16;;;;;;;7.55;6.53;;;;;;;4.58;56.02;101809.00;5092240;28;20036;-72
2022/04/02 09:37:16;;;;;;;9.85;7.40;;;;;;;4.61;56.48;101804.53;5089369;28;20028;-71
2022/04/02 09:40:05;;;;;;;7.75;6.45;;;;;;;4.69;57.20;101809.63;5090125;28;20483;-72
2022/04/02 09:42:37;;;;;;;10.10;6.82;;;;;;;4.63;56.05;101805.38;5095438;28;20474;-72
2022/04/02 09:45:13;;;;;;;7.55;6.88;;;;;;;4.56;56.93;101801.16;5091254;28;20036;-72
2022/04/02 09:47:47;;;;;;;8.45;6.72;;;;;;;4.57;56.31;101810.78;5100670;28;20034;-72
2022/04/02 09:50:17;;;;;;;7.85;6.38;;;;;;;4.54;55.81;101811.72;5091253;28;20036;-72
2022/04/02 09:53:07;;;;;;;9.20;6.18;;;;;;;4.59;55.45;101813.38;5089231;28;20048;-72
2022/04/02 09:55:41;;;;;;;11.38;6.90;;;;;;;4.76;55.81;101812.09;5090252;28;20387;-72
2022/04/02 09:58:19;;;;;;;8.88;6.85;;;;;;;5.13;55.81;101812.97;5089681;28;20050;-72
2022/04/02 10:01:05;;;;;;;7.63;6.20;;;;;;;5.39;54.00;101809.69;5087715;28;20394;-72
2022/04/02 10:03:41;;;;;;;12.93;6.82;;;;;;;5.68;52.66;101808.91;5088324;28;20498;-71
2022/04/02 10:06:37;;;;;;;8.65;6.13;;;;;;;5.88;52.38;101801.31;5087854;28;20020;-72
2022/04/02 10:09:14;;;;;;;8.02;6.30;;;;;;;6.12;51.81;101812.13;5089727;28;20028;-72
2022/04/02 10:11:48;;;;;;;8.35;6.25;;;;;;;6.35;50.51;101812.31;5091892;28;20119;-72
2022/04/02 10:14:20;;;;;;;8.07;6.15;;;;;;;6.26;51.78;101791.41;5093433;28;20390;-72
2022/04/02 10:16:55;;;;;;;9.10;6.78;;;;;;;6.51;51.69;101793.34;5096087;28;20099;-72
2022/04/02 10:19:32;;;;;;;7.57;6.18;;;;;;;6.99;51.66;101803.25;5101108;28;20462;-71
2022/04/02 10:22:12;;;;;;;9.57;6.28;;;;;;;7.31;50.17;101804.81;5097898;28;20020;-71
2022/04/02 10:24:48;;;;;;;7.10;5.68;;;;;;;7.49;48.15;101796.25;5092803;28;20469;-70
2022/04/02 10:27:42;;;;;;;6.55;5.30;;;;;;;7.41;47.19;101794.78;5093245;28;20020;-71
2022/04/02 10:30:12;;;;;;;10.20;5.13;;;;;;;7.08;48.38;101799.44;5093479;28;20032;-71
2022/04/02 10:32:54;;;;;;;6.70;6.03;;;;;;;6.86;49.75;101791.34;5090691;28;20021;-71
2022/04/02 10:35:23;;;;;;;8.65;5.03;;;;;;;6.67;49.04;101791.91;5090495;28;20020;-71
2022/04/02 10:38:09;;;;;;;10.95;4.93;;;;;;;6.46;50.64;101789.97;5093107;28;20486;-71
2022/04/02 10:41:09;;;;;;;11.63;5.60;;;;;;;6.15;51.83;101796.19;5091929;28;20025;-71
2022/04/02 10:44:11;;;;;;;7.10;6.40;;;;;;;5.62;54.86;101807.31;5092054;28;20020;-71
2022/04/02 10:46:44;;;;;;;7.10;5.55;;;;;;;5.09;59.53;101809.56;5090993;28;20355;-71
2022/04/02 10:49:16;;;;;;;8.80;6.43;;;;;;;4.94;58.93;101808.16;5092621;28;20020;-71
2022/04/02 10:51:42;;;;;;;7.47;6.32;;;;;;;4.98;58.96;101803.69;5094079;28;20064;-70
2022/04/02 10:54:12;;;;;;;6.85;5.97;;;;;;;4.94;58.40;101810.81;5091787;28;20083;-72
2022/04/02 10:56:47;;;;;;;6.18;5.57;;;;;;;4.94;59.90;101802.91;5091195;28;20402;-72
2022/04/02 10:59:21;;;;;;;6.85;5.88;;;;;;;4.85;58.67;101794.31;5092303;28;20028;-72
2022/04/02 11:01:52;;;;;;;7.70;6.47;;;;;;;4.74;59.09;101798.09;5094186;28;20019;-71
2022/04/02 11:04:40;;;;;;;7.60;6.80;;;;;;;4.81;59.01;101800.56;5105272;28;20028;-72
2022/04/02 11:07:13;;;;;;;7.93;6.45;;;;;;;4.74;57.69;101807.78;5089680;28;20383;-72
2022/04/02 11:09:39;;;;;;;8.02;5.97;;;;;;;4.66;56.46;101805.31;5091894;28;20429;-72
2022/04/02 11:12:15;;;;;;;7.80;7.00;;;;;;;4.54;57.26;101801.19;5079517;28;20039;-71
2022/04/02 11:14:44;;;;;;;7.25;6.55;;;;;;;4.45;57.78;101804.03;5092941;28;20035;-73
2022/04/02 11:17:30;;;;;;;6.68;6.07;;;;;;;4.55;58.11;101802.03;5099651;28;20534;-72
2022/04/02 11:20:09;;;;;;;6.78;5.90;;;;;;;4.55;57.25;101796.78;5099029;28;20024;-72
2022/04/02 11:22:54;;;;;;;6.85;6.15;;;;;;;4.46;56.96;101792.56;5097616;28;20034;-73
2022/04/02 11:25:25;;;;;;;8.55;6.40;;;;;;;4.47;57.34;101794.34;5096505;28;20395;-72
2022/04/02 11:27:56;;;;;;;7.78;6.68;;;;;;;4.50;58.04;101788.09;5096545;28;20032;-72
2022/04/02 11:30:29;;;;;;;8.43;6.10;;;;;;;4.56;57.06;101780.09;5091475;28;20036;-72
2022/04/02 11:33:04;;;;;;;7.18;6.47;;;;;;;4.74;56.04;101800.72;5107441;28;20042;-71
2022/04/02 11:35:31;;;;;;;7.28;6.57;;;;;;;4.85;55.77;101791.69;5093588;28;20401;-71
2022/04/02 11:38:17;;;;;;;7.28;6.45;;;;;;;5.07;55.67;101789.41;5090989;28;20495;-70
2022/04/02 11:40:52;;;;;;;6.57;5.93;;;;;;;5.24;54.19;101792.47;5097683;28;20402;-72
2022/04/02 11:43:18;;;;;;;6.80;5.70;;;;;;;5.32;51.75;101795.75;5091656;28;20152;-70
2022/04/02 11:45:46;;;;;;;8.70;5.28;;;;;;;5.24;50.91;101810.94;5098142;28;20030;-70
2022/04/02 11:48:15;;;;;;;7.40;5.60;;;;;;;5.13;49.48;101799.78;5101581;28;20390;-71
2022/04/02 11:50:45;;;;;;;6.18;5.50;;;;;;;5.12;49.13;101804.22;5092500;28;20510;-70
2022/04/02 11:53:11;;;;;;;;;;;;;;;5.21;50.49;101797.84;5094513;28;20137;-70
2022/04/02 11:55:38;;;;;;;6.65;5.82;;;;;;;5.17;50.40;101797.03;5091201;28;20053;-70
2022/04/02 11:58:07;;;;;;;7.28;5.65;;;;;;;5.29;49.21;101805.53;5091701;28;20479;-70